Time;durP1;ratioP1;P1;durP2;ratioP2;P2;SDS_P1;SDS_P2;PMS_P1;PMS_P2;Temp;Humidity;BMP_temperature;BMP_pressure;BME280_temperature;BME280_humidity;BME280_pressure;Samples;Min_cycle;Max_cycle;Signal;HPM_P1;HPM_P2
2022/12/17 13:06:47;;;;;;;9.88;6.13;;;;;;;15.88;71.47;96542.28;5137828;27;20184;-63
2022/12/17 13:09:30;;;;;;;13.45;5.72;;;;;;;15.71;72.17;96552.03;5137840;27;20051;-62
2022/12/17 13:12:15;;;;;;;10.85;7.03;;;;;;;15.62;72.64;96549.97;5137693;27;20047;-65
2022/12/17 13:14:50;;;;;;;14.60;6.78;;;;;;;15.45;72.80;96545.66;5137475;27;20431;-65
2022/12/17 13:17:34;;;;;;;17.42;7.15;;;;;;;15.31;73.63;96534.13;5137772;27;20058;-63
2022/12/17 13:20:23;;;;;;;15.13;6.75;;;;;;;15.19;73.85;96529.56;5137519;27;20054;-64
2022/12/17 13:22:52;;;;;;;14.43;6.53;;;;;;;15.07;74.12;96528.47;5137546;27;20051;-65
2022/12/17 13:25:23;;;;;;;16.08;5.80;;;;;;;15.04;74.82;96529.50;5137601;27;20047;-65
2022/12/17 13:27:50;;;;;;;12.93;6.50;;;;;;;14.98;75.20;96527.19;5137368;27;20039;-63
2022/12/17 13:30:39;;;;;;;17.00;9.07;;;;;;;14.93;75.70;96532.72;5137511;27;20043;-65
2022/12/17 13:33:23;;;;;;;17.52;7.00;;;;;;;14.81;76.04;96531.63;5131207;27;20047;-65
2022/12/17 13:36:00;;;;;;;14.30;6.72;;;;;;;14.76;76.58;96528.38;5137216;27;20043;-64
2022/12/17 13:38:36;;;;;;;14.30;6.70;;;;;;;14.68;76.91;96535.81;5137211;27;20047;-65
2022/12/17 13:41:08;;;;;;;11.75;6.93;;;;;;;14.64;77.12;96522.88;5137256;27;20058;-65
2022/12/17 13:43:42;;;;;;;16.10;7.20;;;;;;;14.69;76.69;96522.59;5136983;27;20508;-66
2022/12/17 13:46:19;;;;;;;17.65;6.68;;;;;;;14.69;77.32;96527.84;5136883;27;20054;-65
2022/12/17 13:48:53;;;;;;;11.93;6.50;;;;;;;14.72;77.27;96522.41;5136603;27;20138;-65
2022/12/17 13:51:23;;;;;;;16.23;7.00;;;;;;;14.79;76.76;96525.59;5137039;27;20043;-63
2022/12/17 13:53:55;;;;;;;13.43;6.60;;;;;;;14.78;76.45;96526.56;5136902;27;20446;-63
2022/12/17 13:56:24;;;;;;;10.43;6.10;;;;;;;14.78;76.58;96529.19;5137161;27;20066;-65
2022/12/17 13:58:53;;;;;;;17.67;6.88;;;;;;;14.78;76.69;96523.91;5136862;27;20043;-66
2022/12/17 14:01:24;;;;;;;14.32;6.38;;;;;;;14.83;76.68;96521.00;5136887;27;20058;-63
2022/12/17 14:03:53;;;;;;;12.77;6.55;;;;;;;14.84;76.52;96528.00;5137038;27;20043;-64
2022/12/17 14:06:26;;;;;;;20.42;7.25;;;;;;;14.90;76.33;96530.28;5136721;27;20111;-67
2022/12/17 14:08:55;;;;;;;12.40;6.32;;;;;;;14.86;76.33;96531.38;5136484;27;20047;-63
2022/12/17 14:14:16;;;;;;;15.27;6.18;;;;;;;14.78;76.80;96547.63;5136550;27;20112;-66
2022/12/17 14:16:45;;;;;;;15.55;9.23;;;;;;;14.69;76.72;96551.53;5136678;27;20092;-63
2022/12/17 14:19:12;;;;;;;26.33;11.95;;;;;;;14.62;76.94;96550.19;5136389;27;20097;-63
2022/12/17 14:21:44;;;;;;;17.67;8.80;;;;;;;14.60;76.91;96541.53;5136266;27;20123;-64
2022/12/17 14:24:14;;;;;;;17.05;10.23;;;;;;;14.53;77.19;96541.84;5136389;27;20043;-64
2022/12/17 14:26:49;;;;;;;17.37;10.20;;;;;;;14.51;76.86;96545.50;5136387;27;20043;-64
2022/12/17 14:29:23;;;;;;;15.63;7.60;;;;;;;14.51;76.36;96551.59;5136038;27;20345;-63
2022/12/17 14:31:54;;;;;;;13.52;8.00;;;;;;;14.40;76.61;96553.97;5136221;27;20043;-66
2022/12/17 14:34:21;;;;;;;17.85;7.57;;;;;;;14.25;77.55;96559.13;5136023;27;20127;-63
2022/12/17 14:36:56;;;;;;;16.77;9.52;;;;;;;14.15;78.09;96553.47;5136125;27;20054;-63
2022/12/17 14:39:27;;;;;;;11.00;7.78;;;;;;;14.09;77.50;96561.69;5135996;27;20057;-63
2022/12/17 14:44:51;;;;;;;26.15;10.23;;;;;;;13.94;76.34;96563.31;5135987;27;20152;-67
2022/12/17 14:47:22;;;;;;;14.75;9.98;;;;;;;13.88;76.24;96561.88;5136279;27;20412;-63
2022/12/17 14:49:58;;;;;;;17.48;10.75;;;;;;;13.81;76.16;96563.13;5135582;27;20054;-65
2022/12/17 14:52:35;;;;;;;23.25;6.97;;;;;;;13.70;75.80;96562.81;5135878;27;20046;-66
2022/12/17 14:55:17;;;;;;;11.30;7.20;;;;;;;13.49;75.88;96566.41;5135698;27;20104;-63
2022/12/17 14:57:45;;;;;;;14.43;7.63;;;;;;;13.39;76.35;96586.16;5135331;27;20078;-64
2022/12/17 15:00:14;;;;;;;13.25;7.18;;;;;;;13.31;76.67;96593.56;5135271;27;20080;-64
2022/12/17 15:02:44;;;;;;;19.52;7.72;;;;;;;13.24;76.79;96588.63;5135308;27;20088;-66
2022/12/17 15:05:15;;;;;;;11.32;6.00;;;;;;;13.06;76.57;96589.50;5135328;27;20043;-64
2022/12/17 15:07:44;;;;;;;14.13;5.95;;;;;;;12.93;77.22;96597.94;5135317;27;20047;-62
2022/12/17 15:10:13;;;;;;;14.82;5.65;;;;;;;12.87;77.41;96600.84;5135238;27;20051;-65
2022/12/17 15:12:42;;;;;;;16.38;8.30;;;;;;;12.79;77.29;96600.38;5135272;27;20088;-66
2022/12/17 15:15:14;;;;;;;25.48;8.60;;;;;;;12.68;78.79;96604.34;5135163;27;20081;-64
2022/12/17 15:17:41;;;;;;;16.10;7.00;;;;;;;12.57;79.79;96607.44;5135300;27;20047;-64
2022/12/17 15:20:15;;;;;;;15.55;6.25;;;;;;;12.36;81.42;96611.88;5135127;27;20051;-66
2022/12/17 15:22:46;;;;;;;15.63;6.25;;;;;;;12.16;83.04;96603.09;5135017;27;20086;-63
2022/12/17 15:25:24;;;;;;;14.60;8.13;;;;;;;11.99;84.89;96609.91;5135132;27;20043;-63
2022/12/17 15:27:54;;;;;;;15.20;7.38;;;;;;;11.99;84.17;96609.03;5135017;27;20065;-65
2022/12/17 15:30:22;;;;;;;22.95;9.30;;;;;;;11.94;82.38;96605.75;5134960;27;20166;-63
2022/12/17 15:32:49;;;;;;;12.38;6.63;;;;;;;11.88;81.20;96612.13;5135002;27;20095;-63
2022/12/17 15:35:17;;;;;;;13.57;5.30;;;;;;;11.85;80.79;96620.97;5134887;27;20043;-66
2022/12/17 15:37:46;;;;;;;12.80;6.47;;;;;;;11.80;80.79;96614.22;5134855;27;20054;-63
2022/12/17 15:40:13;;;;;;;19.58;7.50;;;;;;;11.71;82.17;96610.22;5134796;27;20130;-65
2022/12/17 15:45:25;;;;;;;16.48;8.18;;;;;;;11.60;86.37;96634.22;5134933;27;20058;-65
2022/12/17 15:47:53;;;;;;;14.25;7.93;;;;;;;11.57;86.52;96632.59;5134693;27;20569;-64
2022/12/17 15:50:20;;;;;;;12.60;6.05;;;;;;;11.56;83.79;96636.09;5134591;27;20070;-62
2022/12/17 15:52:49;;;;;;;16.85;7.07;;;;;;;11.56;83.97;96636.09;5134538;27;20050;-63
2022/12/17 15:55:17;;;;;;;18.02;7.68;;;;;;;11.52;84.17;96639.78;5134527;27;20047;-64
2022/12/17 15:57:44;;;;;;;21.98;8.93;;;;;;;11.48;85.36;96644.28;5134603;27;20051;-64
2022/12/17 16:00:12;;;;;;;19.77;10.57;;;;;;;11.48;88.40;96644.28;5134392;27;20043;-65
2022/12/17 16:02:41;;;;;;;20.27;9.75;;;;;;;11.49;87.89;96639.88;5134412;27;20538;-63
2022/12/17 16:05:09;;;;;;;28.67;14.23;;;;;;;11.48;86.80;96641.69;5134349;27;20126;-65
2022/12/17 16:07:37;;;;;;;14.80;6.40;;;;;;;11.53;87.46;96641.47;5134517;27;20043;-63
2022/12/17 16:10:11;;;;;;;16.13;8.32;;;;;;;11.45;87.16;96647.03;5134141;27;20051;-65
2022/12/17 16:12:39;;;;;;;13.70;9.27;;;;;;;11.45;90.63;96661.88;5133998;27;20047;-64
2022/12/17 16:15:08;;;;;;;24.67;12.48;;;;;;;11.60;93.23;96668.28;5134299;27;20043;-63
2022/12/17 16:17:36;;;;;;;20.10;12.90;;;;;;;11.66;93.27;96685.53;5134299;27;20050;-62
2022/12/17 16:20:04;;;;;;;19.80;11.30;;;;;;;11.73;92.31;96700.09;5134255;27;20549;-63
2022/12/17 16:22:33;;;;;;;18.98;11.10;;;;;;;11.79;91.03;96705.09;5134125;27;20047;-65
2022/12/17 16:25:01;;;;;;;26.77;12.05;;;;;;;11.85;90.41;96696.97;5134399;27;20088;-65
2022/12/17 16:27:30;;;;;;;23.95;11.38;;;;;;;11.79;89.58;96683.25;5134041;27;20055;-63
2022/12/17 16:29:57;;;;;;;23.25;11.98;;;;;;;11.69;91.30;96695.88;5133978;27;20130;-65
2022/12/17 16:32:24;;;;;;;20.48;12.40;;;;;;;11.76;91.68;96710.44;5134168;28;20040;-64
2022/12/17 16:34:52;;;;;;;17.48;12.18;;;;;;;11.80;91.19;96711.19;5134039;28;20039;-65
2022/12/17 16:37:20;;;;;;;18.13;11.68;;;;;;;11.81;90.78;96713.75;5134116;28;20051;-62
2022/12/17 16:39:49;;;;;;;26.98;14.60;;;;;;;11.85;90.52;96717.06;5133964;28;20446;-63
2022/12/17 16:42:17;;;;;;;25.52;11.15;;;;;;;11.85;90.57;96707.47;5133876;28;20488;-64
2022/12/17 16:45:00;;;;;;;18.05;11.45;;;;;;;11.82;90.21;96723.31;5133850;28;20058;-64
2022/12/17 16:47:28;;;;;;;27.70;11.38;;;;;;;11.80;90.13;96727.75;5133953;28;20071;-64
2022/12/17 16:49:55;;;;;;;28.80;12.27;;;;;;;11.79;90.20;96725.19;5133743;28;20047;-64
2022/12/17 16:52:23;;;;;;;20.20;12.68;;;;;;;11.75;90.50;96714.00;5134091;28;20050;-66
2022/12/17 16:54:50;;;;;;;21.88;14.48;;;;;;;11.79;90.40;96709.47;5134005;28;20124;-66
2022/12/17 16:57:18;;;;;;;28.80;16.25;;;;;;;11.81;90.48;96732.09;5133928;28;20051;-62
2022/12/17 16:59:46;;;;;;;25.50;18.40;;;;;;;11.85;90.91;96738.03;5134044;28;20055;-65
2022/12/17 17:02:16;;;;;;;31.23;19.25;;;;;;;11.88;91.06;96744.03;5133831;28;20400;-64
2022/12/17 17:04:44;;;;;;;34.75;19.67;;;;;;;11.90;91.23;96751.84;5133857;28;20126;-63
2022/12/17 17:07:12;;;;;;;36.17;16.90;;;;;;;11.88;91.33;96764.13;5133880;28;20047;-61
2022/12/17 17:09:40;;;;;;;27.60;15.75;;;;;;;11.86;91.00;96760.75;5133732;28;20090;-63
2022/12/17 17:12:10;;;;;;;30.75;15.38;;;;;;;11.83;91.20;96769.56;5133882;28;20464;-64
2022/12/17 17:14:39;;;;;;;25.20;15.73;;;;;;;11.82;91.20;96751.28;5133779;28;20047;-63
2022/12/17 17:17:06;;;;;;;30.15;21.48;;;;;;;11.67;92.19;96750.97;5133985;28;20139;-63
2022/12/17 17:19:35;;;;;;;71.65;45.72;;;;;;;11.56;93.94;96737.44;5133612;28;20051;-64
2022/12/17 17:22:03;;;;;;;106.78;20.63;;;;;;;11.59;93.62;96716.38;5133681;28;20046;-65
2022/12/17 17:24:32;;;;;;;33.17;17.98;;;;;;;11.57;94.27;96699.84;5135145;27;20480;-63
2022/12/17 17:27:00;;;;;;;34.05;22.10;;;;;;;11.55;94.66;96697.28;5137445;27;20051;-64
2022/12/17 17:29:28;;;;;;;55.13;32.88;;;;;;;11.43;97.35;96690.75;5137196;27;20408;-65
2022/12/17 17:31:55;;;;;;;66.38;34.13;;;;;;;11.35;99.14;96690.22;5137269;27;20043;-64
2022/12/17 17:34:26;;;;;;;58.08;32.83;;;;;;;11.37;100.00;96706.72;5137217;27;20587;-65
2022/12/17 17:36:56;;;;;;;42.15;24.98;;;;;;;11.35;100.00;96711.16;5137240;27;20062;-63
2022/12/17 17:39:26;;;;;;;56.70;34.60;;;;;;;11.38;100.00;96713.69;5137143;27;20059;-64
2022/12/17 17:41:53;;;;;;;38.30;26.48;;;;;;;11.40;100.00;96703.09;5136767;27;20047;-66
2022/12/17 17:44:21;;;;;;;35.65;20.73;;;;;;;11.44;100.00;96679.34;5137069;27;20092;-62
2022/12/17 17:46:50;;;;;;;33.88;22.13;;;;;;;11.51;100.00;96695.72;5137055;27;20050;-64
2022/12/17 17:49:18;;;;;;;49.33;25.95;;;;;;;11.54;100.00;96700.81;5136888;27;20071;-64
2022/12/17 17:51:46;;;;;;;43.35;24.83;;;;;;;11.63;100.00;96699.59;5136985;27;20090;-62
2022/12/17 17:54:15;;;;;;;37.30;20.63;;;;;;;11.69;100.00;96694.13;5136972;27;20112;-63
2022/12/17 17:56:44;;;;;;;35.88;19.58;;;;;;;11.67;100.00;96688.09;5136746;27;20496;-64
2022/12/17 17:59:16;;;;;;;34.95;17.27;;;;;;;11.70;100.00;96692.34;5136890;27;20058;-61
2022/12/17 18:01:46;;;;;;;30.17;17.00;;;;;;;11.69;99.65;96694.13;5136612;27;20138;-63
2022/12/17 18:04:16;;;;;;;32.13;17.80;;;;;;;11.68;99.04;96689.78;5136982;27;20051;-65
2022/12/17 18:06:45;;;;;;;23.52;13.07;;;;;;;11.70;98.48;96698.44;5136673;27;20051;-64
2022/12/17 18:09:14;;;;;;;33.85;16.63;;;;;;;11.73;98.08;96706.19;5136474;27;20107;-62
2022/12/17 18:11:44;;;;;;;35.90;18.08;;;;;;;11.71;97.24;96704.56;5136548;27;20138;-64
2022/12/17 18:14:12;;;;;;;26.27;18.40;;;;;;;11.66;95.99;96709.97;5136449;27;20047;-64
2022/12/17 18:16:42;;;;;;;31.95;17.98;;;;;;;11.65;96.04;96716.09;5136470;27;20043;-65
2022/12/17 18:19:15;;;;;;;32.63;17.98;;;;;;;11.65;95.92;96717.88;5136469;27;20645;-63
2022/12/17 18:21:43;;;;;;;26.50;16.67;;;;;;;11.60;94.78;96707.59;5136266;27;20051;-64
2022/12/17 18:24:13;;;;;;;29.50;15.20;;;;;;;11.43;94.05;96706.47;5136410;27;20047;-65
2022/12/17 18:26:44;;;;;;;25.15;19.77;;;;;;;11.28;93.85;96709.69;5136189;27;20100;-63
2022/12/17 18:29:14;;;;;;;34.10;16.42;;;;;;;11.25;95.08;96714.13;5136328;27;20062;-66
2022/12/17 18:31:42;;;;;;;29.85;19.42;;;;;;;11.19;95.31;96724.84;5136267;27;20054;-64
2022/12/17 18:34:12;;;;;;;36.50;18.13;;;;;;;11.12;96.71;96724.22;5136362;27;20047;-65
2022/12/17 18:36:40;;;;;;;;;;;;;;;11.08;97.92;96725.22;5136660;27;20059;-63
2022/12/17 18:39:11;;;;;;;41.72;20.60;;;;;;;11.04;98.54;96726.25;5136471;27;19966;-62
2022/12/17 18:44:26;;;;;;;33.63;20.40;;;;;;;11.17;100.00;96717.97;5136161;27;20057;-63
2022/12/17 18:46:54;;;;;;;27.05;18.27;;;;;;;11.17;99.61;96725.81;5135975;27;20079;-65
2022/12/17 18:49:22;;;;;;;27.95;17.80;;;;;;;11.17;99.01;96731.06;5136040;27;20075;-63
2022/12/17 18:51:51;;;;;;;33.92;16.15;;;;;;;11.18;98.15;96743.22;5135890;27;20751;-65
2022/12/17 18:54:20;;;;;;;30.20;16.20;;;;;;;11.19;97.61;96751.03;5135743;27;20050;-62
2022/12/17 18:56:47;;;;;;;20.10;13.20;;;;;;;11.21;96.70;96756.19;5135653;27;20047;-63
2022/12/17 18:59:17;;;;;;;19.70;12.10;;;;;;;11.24;95.59;96766.56;5135568;27;20047;-66
2022/12/17 19:01:47;;;;;;;17.98;11.77;;;;;;;11.27;94.75;96783.91;5135500;27;20044;-62
2022/12/17 19:04:16;;;;;;;22.15;12.82;;;;;;;11.18;93.02;96800.81;5135430;27;20507;-63
2022/12/17 19:06:44;;;;;;;23.33;16.08;;;;;;;11.08;92.65;96803.75;5135546;27;20450;-64
2022/12/17 19:09:19;;;;;;;23.58;16.95;;;;;;;11.04;93.08;96798.69;5135426;27;20053;-65
2022/12/17 19:11:47;;;;;;;31.13;20.50;;;;;;;10.84;93.75;96805.50;5135278;27;20047;-63
2022/12/17 19:14:16;;;;;;;48.80;32.55;;;;;;;10.81;93.84;96801.22;5135429;27;20073;-64
2022/12/17 19:16:48;;;;;;;30.00;16.55;;;;;;;10.76;92.65;96812.75;5135188;27;20039;-64
2022/12/17 19:19:15;;;;;;;33.95;15.02;;;;;;;10.72;92.08;96812.84;5135175;27;20051;-66
2022/12/17 19:21:43;;;;;;;27.33;16.15;;;;;;;10.64;92.07;96814.88;5135203;27;20496;-64
2022/12/17 19:24:13;;;;;;;40.70;24.48;;;;;;;10.57;91.67;96811.63;5135089;27;20115;-64
2022/12/17 19:26:42;;;;;;;30.55;18.92;;;;;;;10.50;91.14;96807.50;5135212;27;20055;-63
2022/12/17 19:29:12;;;;;;;21.20;12.57;;;;;;;10.40;90.32;96819.13;5135150;27;20520;-63
2022/12/17 19:31:39;;;;;;;21.67;12.13;;;;;;;10.28;88.96;96826.50;5134839;27;20115;-65
2022/12/17 19:34:12;;;;;;;20.67;12.60;;;;;;;10.26;89.64;96827.44;5134963;27;20043;-66
2022/12/17 19:36:40;;;;;;;22.38;13.63;;;;;;;10.21;90.30;96838.06;5134945;27;20135;-66
2022/12/17 19:39:08;;;;;;;20.52;11.30;;;;;;;10.12;89.56;96849.66;5134953;27;20401;-62
2022/12/17 19:41:36;;;;;;;20.98;14.05;;;;;;;9.99;90.51;96834.34;5134806;27;20071;-65
2022/12/17 19:44:05;;;;;;;27.20;15.30;;;;;;;9.83;92.12;96839.19;5134535;27;20146;-65
2022/12/17 19:46:34;;;;;;;16.20;10.13;;;;;;;9.83;91.18;96846.16;5134304;27;20046;-62
2022/12/17 19:49:01;;;;;;;20.48;11.98;;;;;;;9.67;92.25;96848.38;5135007;27;20081;-65
2022/12/17 19:51:31;;;;;;;18.33;10.52;;;;;;;9.50;92.43;96851.47;5134569;27;20115;-62
2022/12/17 19:53:59;;;;;;;20.73;10.20;;;;;;;9.46;91.14;96861.16;5134760;27;20069;-63
2022/12/17 19:56:28;;;;;;;16.95;11.43;;;;;;;9.43;91.28;96872.56;5134594;27;20103;-63
2022/12/17 19:58:59;;;;;;;16.02;12.73;;;;;;;9.32;90.84;96872.00;5134754;27;20073;-64
2022/12/17 20:01:28;;;;;;;15.13;9.35;;;;;;;9.23;90.12;96875.72;5134524;27;20042;-63
2022/12/17 20:03:58;;;;;;;14.60;9.32;;;;;;;9.22;90.44;96874.00;5134570;27;20043;-62
2022/12/17 20:06:30;;;;;;;14.85;9.40;;;;;;;9.09;89.86;96863.03;5134441;27;20097;-63
2022/12/17 20:09:00;;;;;;;11.45;9.18;;;;;;;9.12;89.89;96873.38;5134474;27;20492;-62
2022/12/17 20:11:33;;;;;;;12.20;6.80;;;;;;;9.04;88.89;96868.41;5134478;27;20051;-62
2022/12/17 20:14:02;;;;;;;9.77;7.32;;;;;;;8.96;88.30;96879.03;5134439;27;20047;-64
2022/12/17 20:16:31;;;;;;;11.25;6.88;;;;;;;8.90;88.98;96873.09;5134375;27;20047;-65
2022/12/17 20:18:59;;;;;;;13.52;7.82;;;;;;;8.69;90.78;96872.75;5134447;27;20075;-64
2022/12/17 20:21:27;;;;;;;17.38;9.70;;;;;;;8.72;92.57;96885.72;5134230;27;20043;-63
2022/12/17 20:23:55;;;;;;;11.82;9.20;;;;;;;8.77;92.51;96898.66;5134195;27;20039;-65
2022/12/17 20:26:25;;;;;;;14.13;7.40;;;;;;;8.74;91.91;96901.34;5134237;27;20100;-65
2022/12/17 20:28:55;;;;;;;16.27;9.15;;;;;;;8.77;92.56;96901.25;5132146;27;20488;-65
2022/12/17 20:31:23;;;;;;;11.20;8.55;;;;;;;8.79;92.52;96910.75;5134258;27;20048;-64
2022/12/17 20:33:51;;;;;;;15.48;10.07;;;;;;;8.73;91.31;96910.91;5115890;28;20047;-61
2022/12/17 20:36:20;;;;;;;13.43;10.40;;;;;;;8.74;91.15;96916.97;5134093;28;20493;-65
2022/12/17 20:38:48;;;;;;;11.00;9.18;;;;;;;8.75;90.71;96914.34;5134208;28;20130;-63
2022/12/17 20:41:18;;;;;;;17.50;10.30;;;;;;;8.68;89.71;96918.84;5134031;28;20438;-65
2022/12/17 20:43:48;;;;;;;11.63;8.73;;;;;;;8.61;90.27;96922.47;5134082;28;20504;-66
2022/12/17 20:46:17;;;;;;;15.55;8.32;;;;;;;8.59;90.07;96917.34;5133969;28;20096;-63
2022/12/17 20:48:45;;;;;;;12.40;9.30;;;;;;;8.58;92.37;96920.81;5133884;28;20559;-64
2022/12/17 20:51:15;;;;;;;17.67;11.07;;;;;;;8.68;95.79;96921.47;5133777;28;20043;-65
2022/12/17 20:53:43;;;;;;;19.27;10.95;;;;;;;8.73;98.24;96923.94;5133817;28;20047;-67
2022/12/17 20:56:13;;;;;;;18.40;10.45;;;;;;;8.82;98.42;96922.88;5133899;28;20462;-67
2022/12/17 20:58:42;;;;;;;14.40;8.03;;;;;;;8.86;98.93;96924.50;5134424;27;20554;-63
2022/12/17 21:01:13;;;;;;;17.95;10.85;;;;;;;8.92;99.54;96923.50;5137936;27;20047;-63
2022/12/17 21:03:41;;;;;;;14.43;10.90;;;;;;;8.98;100.00;96918.13;5138055;27;20122;-63
2022/12/17 21:06:10;;;;;;;12.50;9.55;;;;;;;9.04;99.92;96933.63;5137804;27;20047;-63
2022/12/17 21:08:38;;;;;;;14.57;10.23;;;;;;;9.13;99.47;96940.38;5137955;27;20047;-62
2022/12/17 21:11:06;;;;;;;17.65;10.93;;;;;;;9.19;98.90;96942.81;5137800;27;20047;-64
2022/12/17 21:13:34;;;;;;;16.45;11.10;;;;;;;9.21;98.61;96945.38;5137604;27;20047;-66
2022/12/17 21:16:04;;;;;;;13.90;9.48;;;;;;;9.29;98.55;96951.25;5137681;27;20580;-66
2022/12/17 21:18:34;;;;;;;13.05;9.00;;;;;;;9.33;98.25;96947.66;5137561;27;20039;-64
2022/12/17 21:21:04;;;;;;;10.88;8.40;;;;;;;9.40;96.43;96956.19;5137502;27;20078;-65
2022/12/17 21:23:32;;;;;;;14.10;9.07;;;;;;;9.39;95.97;96962.31;5137473;27;20043;-64
2022/12/17 21:26:03;;;;;;;14.63;10.15;;;;;;;9.38;95.69;96960.59;5137416;27;20047;-66
2022/12/17 21:28:31;;;;;;;15.10;11.88;;;;;;;9.37;95.99;96960.63;5137669;27;20063;-66
2022/12/17 21:30:58;;;;;;;12.80;9.25;;;;;;;9.39;95.59;96966.69;5137226;27;20400;-64
2022/12/17 21:33:27;;;;;;;13.52;10.25;;;;;;;9.35;95.57;96972.00;5137460;27;20047;-65
2022/12/17 21:36:01;;;;;;;14.25;10.73;;;;;;;9.30;96.04;96970.41;5137355;27;20043;-61
2022/12/17 21:38:28;;;;;;;15.50;12.05;;;;;;;9.34;96.94;96965.03;5137387;27;20447;-66
2022/12/17 21:40:56;;;;;;;18.00;12.70;;;;;;;9.37;96.90;96952.81;5137212;27;20047;-65
2022/12/17 21:43:24;;;;;;;34.28;22.00;;;;;;;9.38;97.06;96933.63;5136929;27;20050;-63
2022/12/17 21:45:57;;;;;;;9.65;8.32;;;;;;;9.33;97.29;96921.56;5137351;27;20143;-65
2022/12/17 21:48:24;;;;;;;8.57;6.72;;;;;;;9.39;96.22;96920.53;5137042;27;20050;-63
2022/12/17 21:50:52;;;;;;;8.85;6.68;;;;;;;9.44;95.95;96933.47;5136975;27;20043;-63
2022/12/17 21:53:21;;;;;;;7.65;5.47;;;;;;;9.46;95.68;96937.72;5136850;27;20045;-64
2022/12/17 21:55:50;;;;;;;7.72;5.68;;;;;;;9.46;95.29;96939.50;5136866;27;20050;-65
2022/12/17 21:58:18;;;;;;;8.60;5.97;;;;;;;9.56;94.26;96945.31;5136828;27;20047;-63
2022/12/17 22:00:46;;;;;;;7.72;5.25;;;;;;;9.55;94.01;96926.22;5136716;27;20050;-62
2022/12/17 22:03:14;;;;;;;7.10;5.22;;;;;;;9.55;93.49;96928.81;5137018;27;20058;-63
2022/12/17 22:05:41;;;;;;;8.20;5.05;;;;;;;9.53;93.12;96932.34;5136810;27;20079;-64
2022/12/17 22:08:11;;;;;;;6.70;5.55;;;;;;;9.51;93.33;96928.94;5136923;27;20122;-62
2022/12/17 22:10:42;;;;;;;7.10;5.82;;;;;;;9.44;93.32;96934.31;5136383;27;20039;-63
2022/12/17 22:15:55;;;;;;;8.60;6.03;;;;;;;9.40;93.29;96944.88;5136699;27;20160;-63
2022/12/17 22:18:23;;;;;;;16.98;11.30;;;;;;;9.37;93.19;96948.44;5136421;27;20051;-66
2022/12/17 22:20:58;;;;;;;9.07;6.00;;;;;;;9.29;93.15;96943.44;5136595;27;20115;-65
2022/12/17 22:23:25;;;;;;;9.25;6.13;;;;;;;9.31;93.59;96932.94;5136666;27;20046;-63
2022/12/17 22:25:54;;;;;;;7.57;5.85;;;;;;;9.18;94.00;96935.03;5136384;27;20039;-65
2022/12/17 22:28:21;;;;;;;7.75;6.47;;;;;;;9.28;93.99;96946.94;5136285;27;20050;-65
2022/12/17 22:33:33;;;;;;;11.05;6.95;;;;;;;9.18;93.97;96955.91;5136568;27;20531;-65
2022/12/17 22:36:01;;;;;;;11.85;7.75;;;;;;;9.16;94.13;96957.69;5136196;27;20046;-63
2022/12/17 22:38:32;;;;;;;11.07;7.43;;;;;;;9.10;94.52;96956.94;5136324;27;20396;-61
2022/12/17 22:41:06;;;;;;;12.73;7.72;;;;;;;9.05;94.12;96960.56;5136067;27;20044;-65
2022/12/17 22:43:33;;;;;;;13.18;7.03;;;;;;;9.00;94.40;96950.25;5135810;27;20043;-66
2022/12/17 22:46:02;;;;;;;9.40;6.90;;;;;;;9.00;94.35;96954.63;5135864;27;20078;-62
2022/12/17 22:48:31;;;;;;;8.45;6.63;;;;;;;9.01;93.83;96959.81;5135921;27;20054;-66
2022/12/17 22:51:08;;;;;;;8.45;6.38;;;;;;;8.94;93.86;96959.09;5135813;27;20079;-64
2022/12/17 22:53:35;;;;;;;7.85;6.10;;;;;;;8.90;93.90;96965.28;5136068;27;20043;-64
2022/12/17 22:56:07;;;;;;;7.43;6.32;;;;;;;8.89;94.05;96971.41;5135848;27;20116;-64
2022/12/17 22:58:37;;;;;;;9.52;6.22;;;;;;;8.88;93.96;96966.22;5135713;27;20122;-66
2022/12/17 23:01:05;;;;;;;7.50;6.13;;;;;;;8.92;93.92;96967.84;5135911;27;20051;-66
2022/12/17 23:03:32;;;;;;;6.38;5.32;;;;;;;8.95;93.81;96967.78;5135584;27;20080;-63
2022/12/17 23:06:06;;;;;;;9.50;5.70;;;;;;;8.97;93.54;96960.75;5135580;27;20096;-63
2022/12/17 23:08:34;;;;;;;8.50;5.90;;;;;;;9.06;93.15;96972.75;5135433;27;20040;-67
2022/12/17 23:11:08;;;;;;;8.15;6.10;;;;;;;9.06;93.09;96973.59;5135516;27;20082;-67
2022/12/17 23:13:36;;;;;;;6.40;4.97;;;;;;;9.08;92.78;96973.53;5135439;27;20458;-64
2022/12/17 23:16:04;;;;;;;9.43;5.47;;;;;;;9.07;92.67;96969.22;5135310;27;20047;-66
2022/12/17 23:18:32;;;;;;;8.07;5.65;;;;;;;9.01;92.63;96967.63;5135384;27;20054;-66
2022/12/17 23:21:07;;;;;;;7.95;5.47;;;;;;;9.03;92.63;96962.38;5135061;27;20076;-66
2022/12/17 23:23:35;;;;;;;7.90;4.95;;;;;;;9.09;92.27;96976.13;5134763;27;20086;-66
2022/12/17 23:26:08;;;;;;;7.43;5.00;;;;;;;9.12;92.05;96984.78;5135047;27;20051;-64
2022/12/17 23:28:36;;;;;;;8.18;4.32;;;;;;;9.19;91.69;96995.03;5135131;27;20053;-66
2022/12/17 23:31:08;;;;;;;6.38;4.30;;;;;;;9.23;91.61;96998.41;5134988;27;20047;-64
2022/12/17 23:33:35;;;;;;;4.75;4.15;;;;;;;9.28;91.29;97000.91;5134981;27;20043;-65
2022/12/17 23:36:04;;;;;;;7.63;4.82;;;;;;;9.30;90.96;97006.94;5134979;27;20536;-66
2022/12/17 23:38:32;;;;;;;8.70;5.18;;;;;;;9.32;91.10;97013.84;5134799;27;20043;-66
2022/12/17 23:41:03;;;;;;;7.57;5.40;;;;;;;9.39;90.73;97009.31;5135141;27;20039;-64
2022/12/17 23:43:33;;;;;;;7.57;4.82;;;;;;;9.35;90.61;97007.69;5134643;27;20508;-66
2022/12/17 23:46:01;;;;;;;5.97;4.43;;;;;;;9.42;90.78;97011.84;5135044;27;20126;-62
2022/12/17 23:48:32;;;;;;;7.75;4.60;;;;;;;9.46;90.42;97021.31;5134654;27;20046;-63
2022/12/17 23:51:00;;;;;;;9.30;4.85;;;;;;;9.48;90.52;97019.53;5134546;27;20148;-65
2022/12/17 23:53:28;;;;;;;5.80;4.55;;;;;;;9.49;90.45;97028.22;5134594;27;20050;-64
2022/12/17 23:55:55;;;;;;;6.45;4.38;;;;;;;9.52;90.32;97022.06;5134481;27;20100;-63
2022/12/17 23:58:23;;;;;;;7.07;4.95;;;;;;;9.50;89.97;97026.44;5134558;27;20083;-63
